createdAt,value
2023-10-03T00:00:35.167Z,67.20
2023-10-03T00:03:09.509Z,67.40
2023-10-03T00:05:37.214Z,67.50
2023-10-03T00:08:05.474Z,67.50
2023-10-03T00:10:39.776Z,67.60
2023-10-03T00:13:10.070Z,68.00
2023-10-03T00:15:41.073Z,67.80
2023-10-03T00:18:08.017Z,68.00
2023-10-03T00:20:34.869Z,68.20
2023-10-03T00:23:02.804Z,67.50
2023-10-03T00:25:29.753Z,67.70
2023-10-03T00:28:00.566Z,68.20
2023-10-03T00:30:30.075Z,68.30
2023-10-03T00:32:59.351Z,68.70
2023-10-03T00:35:30.367Z,68.70
2023-10-03T00:37:57.446Z,68.30
2023-10-03T00:40:25.935Z,68.90
2023-10-03T00:42:59.337Z,69.10
2023-10-03T00:45:28.068Z,68.50
2023-10-03T00:48:01.442Z,69.50
2023-10-03T00:50:30.788Z,69.30
2023-10-03T00:53:01.753Z,69.50
2023-10-03T00:55:34.146Z,69.50
2023-10-03T00:58:13.025Z,69.80
2023-10-03T01:00:51.186Z,69.70
2023-10-03T01:03:38.015Z,69.80
2023-10-03T01:06:12.165Z,70.50
2023-10-03T01:08:48.099Z,70.00
2023-10-03T01:11:17.761Z,70.50
2023-10-03T01:13:57.480Z,70.20
2023-10-03T01:16:35.748Z,70.30
2023-10-03T01:19:15.654Z,70.40
2023-10-03T01:21:43.129Z,70.60
2023-10-03T01:24:12.690Z,70.60
2023-10-03T01:26:40.724Z,71.10
2023-10-03T01:29:07.565Z,71.30
2023-10-03T01:31:34.351Z,70.90
2023-10-03T01:34:02.495Z,71.00
2023-10-03T01:36:30.513Z,71.00
2023-10-03T01:38:57.438Z,71.20
2023-10-03T01:41:24.527Z,71.40
2023-10-03T01:43:51.338Z,71.50
2023-10-03T01:46:18.983Z,71.00
2023-10-03T01:48:46.430Z,71.60
2023-10-03T01:51:13.198Z,72.20
2023-10-03T01:53:43.176Z,71.80
2023-10-03T01:56:10.690Z,71.40
2023-10-03T01:58:38.252Z,71.90
2023-10-03T02:01:05.288Z,72.10
2023-10-03T02:03:34.276Z,71.80
2023-10-03T02:06:01.447Z,72.20
2023-10-03T02:08:28.280Z,72.20
2023-10-03T02:10:55.141Z,72.00
2023-10-03T02:13:25.226Z,72.40
2023-10-03T02:15:55.036Z,72.50
2023-10-03T02:21:05.004Z,71.90
2023-10-03T02:23:34.205Z,72.80
2023-10-03T02:26:11.575Z,73.10
2023-10-03T02:28:39.760Z,73.50
2023-10-03T02:31:10.049Z,73.00
2023-10-03T02:33:41.454Z,73.10
2023-10-03T02:38:38.606Z,72.70
2023-10-03T02:41:11.322Z,73.20
2023-10-03T02:43:43.713Z,73.40
2023-10-03T02:46:13.593Z,72.80
2023-10-03T02:48:42.130Z,73.40
2023-10-03T02:51:10.803Z,73.50
2023-10-03T02:53:37.953Z,73.70
2023-10-03T02:56:05.434Z,73.50
2023-10-03T02:58:32.307Z,73.60
2023-10-03T03:00:59.427Z,73.00
2023-10-03T03:03:31.698Z,73.00
2023-10-03T03:06:05.021Z,73.60
2023-10-03T03:08:32.400Z,73.80
2023-10-03T03:11:01.276Z,73.50
2023-10-03T03:13:33.314Z,73.40
2023-10-03T03:16:02.373Z,73.30
2023-10-03T03:18:41.392Z,73.30
2023-10-03T03:21:16.752Z,73.20
2023-10-03T03:24:01.321Z,73.10
2023-10-03T03:26:39.177Z,73.10
2023-10-03T03:29:22.856Z,73.30
2023-10-03T03:31:51.575Z,72.50
2023-10-03T03:34:18.543Z,72.50
2023-10-03T03:36:49.138Z,72.50
2023-10-03T03:39:17.299Z,72.50
2023-10-03T03:41:44.985Z,72.50
2023-10-03T03:46:42.885Z,72.40
2023-10-03T03:49:10.657Z,72.30
2023-10-03T03:51:38.246Z,72.50
2023-10-03T03:54:09.447Z,72.60
2023-10-03T03:56:36.596Z,72.50
2023-10-03T03:59:04.657Z,72.40
2023-10-03T04:01:31.694Z,72.40
2023-10-03T04:04:00.738Z,72.30
2023-10-03T04:06:27.627Z,72.40
2023-10-03T04:09:06.101Z,72.40
2023-10-03T04:11:37.211Z,72.50
2023-10-03T04:14:06.780Z,72.50
2023-10-03T04:16:40.091Z,72.10
2023-10-03T04:19:09.010Z,72.60
2023-10-03T04:21:36.492Z,72.70
2023-10-03T04:24:06.060Z,72.70
2023-10-03T04:26:33.883Z,72.60
2023-10-03T04:29:01.204Z,72.70
2023-10-03T04:31:28.312Z,72.70
2023-10-03T04:33:56.907Z,72.70
2023-10-03T04:36:27.298Z,72.70
2023-10-03T04:38:55.089Z,72.30
2023-10-03T04:41:22.369Z,72.50
2023-10-03T04:43:52.890Z,72.50
2023-10-03T04:46:19.792Z,71.80
2023-10-03T04:48:46.704Z,71.70
2023-10-03T04:51:16.912Z,72.30
2023-10-03T04:53:43.816Z,72.50
2023-10-03T04:56:10.640Z,72.40
2023-10-03T04:58:37.434Z,71.80
2023-10-03T05:01:05.118Z,71.90
2023-10-03T05:03:32.396Z,71.70
2023-10-03T05:06:02.486Z,72.20
2023-10-03T05:08:29.573Z,72.10
2023-10-03T05:10:56.439Z,72.00
2023-10-03T05:13:23.237Z,71.30
2023-10-03T05:15:52.645Z,71.50
2023-10-03T05:18:20.224Z,71.90
2023-10-03T05:20:47.121Z,71.40
2023-10-03T05:23:15.983Z,71.00
2023-10-03T05:25:44.700Z,71.60
2023-10-03T05:28:14.806Z,71.20
2023-10-03T05:30:42.207Z,71.60
2023-10-03T05:33:09.770Z,71.00
2023-10-03T05:35:38.782Z,71.50
2023-10-03T05:38:11.847Z,70.70
2023-10-03T05:40:39.258Z,70.90
2023-10-03T05:43:07.765Z,71.30
2023-10-03T05:45:37.432Z,71.20
2023-10-03T05:48:06.124Z,70.60
2023-10-03T05:50:34.638Z,71.00
2023-10-03T05:53:02.468Z,70.90
2023-10-03T05:55:29.536Z,70.80
2023-10-03T05:57:56.975Z,70.70
2023-10-03T06:00:24.446Z,70.00
2023-10-03T06:02:51.703Z,70.60
2023-10-03T06:05:19.334Z,70.50
2023-10-03T06:07:46.868Z,69.60
2023-10-03T06:10:17.803Z,69.50
2023-10-03T06:12:45.634Z,70.20
2023-10-03T06:15:16.300Z,69.20
2023-10-03T06:17:44.793Z,70.00
2023-10-03T06:20:16.336Z,69.00
2023-10-03T06:22:44.032Z,68.90
2023-10-03T06:25:12.085Z,69.50
2023-10-03T06:27:39.501Z,69.30
2023-10-03T06:30:09.754Z,68.60
2023-10-03T06:32:36.833Z,68.30
2023-10-03T06:35:06.119Z,69.00
2023-10-03T06:37:38.251Z,68.30
2023-10-03T06:40:10.189Z,68.10
2023-10-03T06:42:37.396Z,68.00
2023-10-03T06:45:04.955Z,68.60
2023-10-03T06:47:37.221Z,67.50
2023-10-03T06:50:06.701Z,68.40
2023-10-03T06:52:35.356Z,68.20
2023-10-03T06:55:05.538Z,68.00
2023-10-03T06:57:33.757Z,66.90
2023-10-03T07:00:01.005Z,67.70
2023-10-03T07:02:28.248Z,67.70
2023-10-03T07:04:55.150Z,67.70
2023-10-03T07:07:21.976Z,67.50
2023-10-03T07:09:50.126Z,67.40
2023-10-03T07:12:18.194Z,67.30
2023-10-03T07:14:49.451Z,67.20
2023-10-03T07:17:16.396Z,66.90
2023-10-03T07:19:47.267Z,66.20
2023-10-03T07:22:14.045Z,67.80
2023-10-03T07:24:40.919Z,67.10
2023-10-03T07:27:08.938Z,66.90
2023-10-03T07:29:38.411Z,66.00
2023-10-03T07:32:05.487Z,66.60
2023-10-03T07:37:00.194Z,65.20
2023-10-03T07:39:27.558Z,66.10
2023-10-03T07:41:54.720Z,66.00
2023-10-03T07:44:23.444Z,64.80
2023-10-03T07:46:50.973Z,64.70
2023-10-03T07:51:45.119Z,64.90
2023-10-03T07:54:13.411Z,65.40
2023-10-03T07:56:43.729Z,65.30
2023-10-03T07:59:10.606Z,65.20
2023-10-03T08:04:14.041Z,65.00
2023-10-03T08:06:42.932Z,64.80
2023-10-03T08:09:10.532Z,64.80
2023-10-03T08:11:38.310Z,64.80
2023-10-03T08:14:12.994Z,64.60
2023-10-03T08:16:42.013Z,64.60
2023-10-03T08:19:10.218Z,64.50
2023-10-03T08:21:41.916Z,64.30
2023-10-03T08:24:12.043Z,64.30
2023-10-03T08:26:39.032Z,64.20
2023-10-03T08:29:06.366Z,64.00
2023-10-03T08:31:33.771Z,63.70
2023-10-03T08:34:02.023Z,63.40
2023-10-03T08:36:29.609Z,63.20
2023-10-03T08:39:06.759Z,63.00
2023-10-03T08:41:48.444Z,62.80
2023-10-03T08:44:16.311Z,62.20
2023-10-03T08:46:50.273Z,61.20
2023-10-03T08:49:21.010Z,62.10
2023-10-03T08:51:48.605Z,61.70
2023-10-03T08:54:16.734Z,61.00
2023-10-03T08:56:43.769Z,61.50
2023-10-03T08:59:11.059Z,62.10
2023-10-03T09:01:44.522Z,61.10
2023-10-03T09:04:23.017Z,60.50
2023-10-03T09:06:51.949Z,60.30
2023-10-03T09:09:18.751Z,60.40
2023-10-03T09:11:52.258Z,60.10
2023-10-03T09:14:22.139Z,60.00
2023-10-03T09:16:52.002Z,59.70
2023-10-03T09:19:25.318Z,59.10
2023-10-03T09:21:54.206Z,59.50
2023-10-03T09:24:23.500Z,59.40
2023-10-03T09:26:53.718Z,59.30
2023-10-03T09:29:33.987Z,59.20
2023-10-03T09:32:14.125Z,58.50
2023-10-03T09:34:59.493Z,59.00
2023-10-03T09:37:31.980Z,58.40
2023-10-03T09:40:01.587Z,58.10
2023-10-03T09:42:33.164Z,58.50
2023-10-03T09:45:00.684Z,58.90
2023-10-03T09:47:34.493Z,57.20
2023-10-03T09:50:07.689Z,58.30
2023-10-03T09:52:38.155Z,58.20
2023-10-03T09:55:27.593Z,58.10
2023-10-03T09:58:00.978Z,58.10
2023-10-03T10:00:42.821Z,57.90
2023-10-03T10:03:20.949Z,58.70
2023-10-03T10:06:13.864Z,58.00
2023-10-03T10:09:15.189Z,57.60
2023-10-03T10:12:13.258Z,57.30
2023-10-03T10:15:01.685Z,57.40
2023-10-03T10:17:50.925Z,57.10
2023-10-03T10:20:39.016Z,57.40
2023-10-03T10:23:10.485Z,57.50
2023-10-03T10:25:43.453Z,57.80
2023-10-03T10:28:23.821Z,57.80
2023-10-03T10:31:12.587Z,57.50
2023-10-03T10:33:42.781Z,57.10
2023-10-03T10:36:11.649Z,57.40
2023-10-03T10:38:53.382Z,57.30
2023-10-03T10:41:28.423Z,56.70
2023-10-03T10:44:08.352Z,57.20
2023-10-03T10:46:51.137Z,56.60
2023-10-03T10:49:34.983Z,57.00
2023-10-03T10:52:14.152Z,56.30
2023-10-03T10:54:43.929Z,56.70
2023-10-03T10:57:12.367Z,56.60
2023-10-03T10:59:42.391Z,56.50
2023-10-03T11:02:21.392Z,56.50
2023-10-03T11:04:59.459Z,55.60
2023-10-03T11:07:30.278Z,55.50
2023-10-03T11:10:19.315Z,55.60
2023-10-03T11:13:05.001Z,55.00
2023-10-03T11:15:32.480Z,55.10
2023-10-03T11:17:59.883Z,55.10
2023-10-03T11:20:27.713Z,55.00
2023-10-03T11:22:56.096Z,55.00
2023-10-03T11:25:23.117Z,54.90
2023-10-03T11:27:52.001Z,54.70
2023-10-03T11:30:26.992Z,54.70
2023-10-03T11:33:02.697Z,54.40
2023-10-03T11:35:29.629Z,53.50
2023-10-03T11:37:56.426Z,54.00
2023-10-03T11:40:26.374Z,52.50
2023-10-03T11:43:00.387Z,53.40
2023-10-03T11:45:31.371Z,52.90
2023-10-03T11:48:09.603Z,53.20
2023-10-03T11:50:39.117Z,53.20
2023-10-03T11:53:09.500Z,53.20
2023-10-03T11:55:37.568Z,53.20
2023-10-03T11:58:10.196Z,53.10
2023-10-03T12:00:37.723Z,53.10
2023-10-03T12:03:07.218Z,53.00
2023-10-03T12:05:35.990Z,53.10
2023-10-03T12:08:04.911Z,53.00
2023-10-03T12:10:32.973Z,53.00
2023-10-03T12:12:59.950Z,52.70
2023-10-03T12:15:27.117Z,52.70
2023-10-03T12:17:54.271Z,52.80
2023-10-03T12:20:22.544Z,53.00
2023-10-03T12:22:52.508Z,53.00
2023-10-03T12:25:23.083Z,52.50
2023-10-03T12:27:50.312Z,53.50
2023-10-03T12:30:18.946Z,53.00
2023-10-03T12:32:49.150Z,53.10
2023-10-03T12:35:17.537Z,52.90
2023-10-03T12:37:47.672Z,53.10
2023-10-03T12:40:18.732Z,53.20
2023-10-03T12:42:48.421Z,53.10
2023-10-03T12:45:21.557Z,52.70
2023-10-03T12:47:53.578Z,52.50
2023-10-03T12:50:22.831Z,52.80
2023-10-03T12:52:57.293Z,53.20
2023-10-03T12:55:26.609Z,53.00
2023-10-03T12:57:56.935Z,53.10
2023-10-03T13:00:25.299Z,53.10
2023-10-03T13:02:55.403Z,53.30
2023-10-03T13:05:24.190Z,53.50
2023-10-03T13:07:53.384Z,53.70
2023-10-03T13:10:23.789Z,53.60
2023-10-03T13:12:53.212Z,53.60
2023-10-03T13:15:20.381Z,53.30
2023-10-03T13:17:55.716Z,53.80
2023-10-03T13:22:58.683Z,53.40
2023-10-03T13:25:29.103Z,54.00
2023-10-03T13:27:55.950Z,54.10
2023-10-03T13:30:26.904Z,53.30
2023-10-03T13:35:24.801Z,53.80
2023-10-03T13:37:52.940Z,54.30
2023-10-03T13:40:20.255Z,54.30
2023-10-03T13:42:50.633Z,53.90
2023-10-03T13:45:18.569Z,53.80
2023-10-03T13:47:47.323Z,54.30
2023-10-03T13:50:16.632Z,54.40
2023-10-03T13:52:43.445Z,54.40
2023-10-03T13:55:11.810Z,54.30
2023-10-03T13:57:41.359Z,53.90
2023-10-03T14:00:13.776Z,54.40
2023-10-03T14:02:46.047Z,54.10
2023-10-03T14:05:14.171Z,54.10
2023-10-03T14:07:41.001Z,54.10
2023-10-03T14:10:10.638Z,54.70
2023-10-03T14:12:37.773Z,54.80
2023-10-03T14:15:11.107Z,54.80
2023-10-03T14:17:39.167Z,54.80
2023-10-03T14:20:11.328Z,54.80
2023-10-03T14:22:41.819Z,54.80
2023-10-03T14:25:13.369Z,54.90
2023-10-03T14:27:42.931Z,54.90
2023-10-03T14:30:11.402Z,55.00
2023-10-03T14:32:39.875Z,55.00
2023-10-03T14:35:08.913Z,55.10
2023-10-03T14:37:36.899Z,55.10
2023-10-03T14:40:11.262Z,55.20
2023-10-03T14:42:39.119Z,55.20
2023-10-03T14:45:10.318Z,54.80
2023-10-03T14:47:37.652Z,55.30
2023-10-03T14:50:05.829Z,55.30
2023-10-03T14:52:33.074Z,55.30
2023-10-03T14:55:00.429Z,54.70
2023-10-03T14:57:27.461Z,55.20
2023-10-03T14:59:55.417Z,55.10
2023-10-03T15:02:22.683Z,55.10
2023-10-03T15:04:50.415Z,55.90
2023-10-03T15:07:21.311Z,55.20
2023-10-03T15:09:48.242Z,54.70
2023-10-03T15:12:15.064Z,55.10
2023-10-03T15:14:42.232Z,55.20
2023-10-03T15:17:12.841Z,55.20
2023-10-03T15:19:40.142Z,55.00
2023-10-03T15:22:14.549Z,55.00
2023-10-03T15:27:12.887Z,54.50
2023-10-03T15:29:39.821Z,55.10
2023-10-03T15:32:08.100Z,55.10
2023-10-03T15:34:38.460Z,55.10
2023-10-03T15:37:10.868Z,55.10
2023-10-03T15:39:37.700Z,55.10
2023-10-03T15:42:04.667Z,55.10
2023-10-03T15:44:31.495Z,55.10
2023-10-03T15:46:58.442Z,54.60
2023-10-03T15:49:25.447Z,55.10
2023-10-03T15:51:52.537Z,55.10
2023-10-03T15:54:19.436Z,55.20
2023-10-03T15:59:14.966Z,54.80
2023-10-03T16:01:42.493Z,55.40
2023-10-03T16:04:10.012Z,55.60
2023-10-03T16:06:38.739Z,56.80
2023-10-03T16:09:13.577Z,57.40
2023-10-03T16:11:43.081Z,57.40
2023-10-03T16:14:13.996Z,57.60
2023-10-03T16:16:42.859Z,59.80
2023-10-03T16:19:10.552Z,58.40
2023-10-03T16:21:38.828Z,59.10
2023-10-03T16:24:08.278Z,59.40
2023-10-03T16:26:35.580Z,60.10
2023-10-03T16:29:03.383Z,60.30
2023-10-03T16:31:31.335Z,61.80
2023-10-03T16:33:58.360Z,62.60
2023-10-03T16:36:26.066Z,63.70
2023-10-03T16:38:53.735Z,64.60
2023-10-03T16:41:21.383Z,64.20
2023-10-03T16:43:48.810Z,64.40
2023-10-03T16:46:18.484Z,67.70
2023-10-03T16:48:45.956Z,66.10
2023-10-03T16:51:15.346Z,66.60
2023-10-03T16:53:42.497Z,67.00
2023-10-03T16:56:09.298Z,67.10
2023-10-03T16:58:36.111Z,67.40
2023-10-03T17:01:03.128Z,67.40
2023-10-03T17:03:34.369Z,67.70
2023-10-03T17:06:01.485Z,68.00
2023-10-03T17:08:28.487Z,68.40
2023-10-03T17:10:55.262Z,68.80
2023-10-03T17:13:22.333Z,68.60
2023-10-03T17:15:49.144Z,69.20
2023-10-03T17:18:16.000Z,70.00
2023-10-03T17:20:42.892Z,69.90
2023-10-03T17:25:41.121Z,69.00
2023-10-03T17:28:08.207Z,70.60
2023-10-03T17:30:37.019Z,70.50
2023-10-03T17:33:05.306Z,70.70
2023-10-03T17:35:34.305Z,71.20
2023-10-03T17:38:01.113Z,71.50
2023-10-03T17:40:27.938Z,71.50
2023-10-03T17:42:59.054Z,71.90
2023-10-03T17:45:26.382Z,73.30
2023-10-03T17:47:53.837Z,72.00
2023-10-03T17:50:21.089Z,72.40
2023-10-03T17:52:49.364Z,72.50
2023-10-03T17:55:16.519Z,72.70
2023-10-03T17:57:44.332Z,72.80
2023-10-03T18:00:14.964Z,73.00
2023-10-03T18:02:43.581Z,73.30
2023-10-03T18:05:11.793Z,72.60
2023-10-03T18:07:40.556Z,73.20
2023-10-03T18:10:13.714Z,73.20
2023-10-03T18:12:45.133Z,73.30
2023-10-03T18:15:13.901Z,73.10
2023-10-03T18:17:43.185Z,73.00
2023-10-03T18:20:11.944Z,73.30
2023-10-03T18:22:42.070Z,73.30
2023-10-03T18:25:14.243Z,73.90
2023-10-03T18:27:43.009Z,73.80
2023-10-03T18:30:13.497Z,74.00
2023-10-03T18:32:42.271Z,74.00
2023-10-03T18:35:12.109Z,73.60
2023-10-03T18:37:39.392Z,74.00
2023-10-03T18:40:10.303Z,73.90
2023-10-03T18:42:39.062Z,74.60
2023-10-03T18:45:06.904Z,74.90
2023-10-03T18:47:34.293Z,73.90
2023-10-03T18:50:02.869Z,74.50
2023-10-03T18:52:30.418Z,74.50
2023-10-03T18:54:57.696Z,74.30
2023-10-03T18:57:25.846Z,74.20
2023-10-03T18:59:53.041Z,74.20
2023-10-03T19:02:19.938Z,74.00
2023-10-03T19:04:49.277Z,73.70
2023-10-03T19:07:16.255Z,73.30
2023-10-03T19:09:44.154Z,73.20
2023-10-03T19:12:11.125Z,73.30
2023-10-03T19:14:38.396Z,73.30
2023-10-03T19:17:05.333Z,73.40
2023-10-03T19:19:38.285Z,73.90
2023-10-03T19:22:07.664Z,74.10
2023-10-03T19:24:34.452Z,73.50
2023-10-03T19:29:31.123Z,72.80
2023-10-03T19:34:27.928Z,72.20
2023-10-03T19:36:54.670Z,72.50
2023-10-03T19:39:23.231Z,72.20
2023-10-03T19:41:50.710Z,70.80
2023-10-03T19:44:17.591Z,70.70
2023-10-03T19:46:51.449Z,71.20
2023-10-03T19:49:18.154Z,72.30
2023-10-03T19:51:44.969Z,71.00
2023-10-03T19:54:12.816Z,71.90
2023-10-03T19:56:39.726Z,70.80
2023-10-03T19:59:06.610Z,71.00
2023-10-03T20:01:33.546Z,71.50
2023-10-03T20:04:01.372Z,71.50
2023-10-03T20:06:29.320Z,71.70
2023-10-03T20:08:56.360Z,71.00
2023-10-03T20:11:23.335Z,71.90
2023-10-03T20:13:50.165Z,71.60
2023-10-03T20:16:17.171Z,72.40
2023-10-03T20:18:44.029Z,72.40
2023-10-03T20:21:12.045Z,72.30
2023-10-03T20:23:39.109Z,72.40
2023-10-03T20:26:05.982Z,72.50
2023-10-03T20:28:32.828Z,72.50
2023-10-03T20:30:59.766Z,73.20
2023-10-03T20:33:26.644Z,72.40
2023-10-03T20:35:54.187Z,72.50
2023-10-03T20:40:54.621Z,71.70
2023-10-03T20:43:24.592Z,72.10
2023-10-03T20:45:53.299Z,72.10
2023-10-03T20:48:20.165Z,72.50
2023-10-03T20:50:47.106Z,71.70
2023-10-03T20:53:15.688Z,71.40
2023-10-03T20:55:42.572Z,71.30
2023-10-03T20:58:09.379Z,71.30
2023-10-03T21:00:36.165Z,71.30
2023-10-03T21:03:03.065Z,71.30
2023-10-03T21:05:30.100Z,71.30
2023-10-03T21:07:57.930Z,71.30
2023-10-03T21:10:24.954Z,71.40
2023-10-03T21:12:51.823Z,71.40
2023-10-03T21:15:18.777Z,71.50
2023-10-03T21:17:45.770Z,71.60
2023-10-03T21:20:13.658Z,71.60
2023-10-03T21:22:42.129Z,71.60
2023-10-03T21:25:12.203Z,71.80
2023-10-03T21:27:40.068Z,71.70
2023-10-03T21:30:09.074Z,71.40
2023-10-03T21:32:36.119Z,72.20
2023-10-03T21:35:03.529Z,72.20
2023-10-03T21:37:30.559Z,72.30
2023-10-03T21:39:57.402Z,72.10
2023-10-03T21:42:28.542Z,71.50
2023-10-03T21:44:56.249Z,72.10
2023-10-03T21:47:23.149Z,72.20
2023-10-03T21:49:50.787Z,71.80
2023-10-03T21:52:18.820Z,72.30
2023-10-03T21:54:47.060Z,72.40
2023-10-03T21:57:16.409Z,71.90
2023-10-03T21:59:43.310Z,72.40
2023-10-03T22:04:41.294Z,71.80
2023-10-03T22:07:11.936Z,72.50
2023-10-03T22:09:39.093Z,72.70
2023-10-03T22:12:06.398Z,73.30
2023-10-03T22:14:33.509Z,72.70
2023-10-03T22:17:00.307Z,72.80
2023-10-03T22:19:27.094Z,72.60
2023-10-03T22:21:53.988Z,72.70
2023-10-03T22:24:25.321Z,72.80
2023-10-03T22:26:52.905Z,72.80
2023-10-03T22:29:19.811Z,72.80
2023-10-03T22:31:46.695Z,72.80
2023-10-03T22:34:13.514Z,72.80
2023-10-03T22:36:40.532Z,73.00
2023-10-03T22:39:08.991Z,73.00
2023-10-03T22:44:04.836Z,72.70
2023-10-03T22:46:31.993Z,72.50
2023-10-03T22:48:58.879Z,72.60
2023-10-03T22:51:26.640Z,73.20
2023-10-03T22:53:53.589Z,73.30
2023-10-03T22:56:25.931Z,73.30
2023-10-03T22:58:54.530Z,73.30
2023-10-03T23:01:21.694Z,73.40
2023-10-03T23:03:48.645Z,73.60
2023-10-03T23:06:15.776Z,73.70
2023-10-03T23:08:42.834Z,73.60
2023-10-03T23:11:09.693Z,73.70
2023-10-03T23:13:37.239Z,73.80
2023-10-03T23:16:08.478Z,74.10
2023-10-03T23:18:36.278Z,74.20
2023-10-03T23:21:03.981Z,74.10
2023-10-03T23:23:31.573Z,74.00
2023-10-03T23:25:59.593Z,74.00
2023-10-03T23:28:26.790Z,74.00
2023-10-03T23:30:53.668Z,74.10
2023-10-03T23:33:20.858Z,74.00
2023-10-03T23:35:48.469Z,73.80
2023-10-03T23:38:16.342Z,73.90
2023-10-03T23:40:43.641Z,74.40
2023-10-03T23:43:10.500Z,73.00
2023-10-03T23:45:39.178Z,73.60
2023-10-03T23:48:06.839Z,73.50
2023-10-03T23:50:34.643Z,73.50
2023-10-03T23:53:07.724Z,73.40
2023-10-03T23:55:37.202Z,73.50
